Time;durP1;ratioP1;P1;durP2;ratioP2;P2;SDS_P1;SDS_P2;PMS_P1;PMS_P2;Temp;Humidity;BMP_temperature;BMP_pressure;BME280_temperature;BME280_humidity;BME280_pressure;Samples;Min_cycle;Max_cycle;Signal;HPM_P1;HPM_P2
2023/01/12 00:01:25;;;;;;;11.25;5.03;;;;;;;;;;5015993;28;20686;-82
2023/01/12 00:03:51;;;;;;;9.85;4.97;;;;;;;;;;5020073;28;20384;-82
2023/01/12 00:06:18;;;;;;;11.43;5.40;;;;;;;;;;5030575;28;20041;-82
2023/01/12 00:08:44;;;;;;;13.50;5.28;;;;;;;;;;5031585;28;20047;-83
2023/01/12 00:11:09;;;;;;;8.52;4.30;;;;;;;;;;5007154;28;20033;-82
2023/01/12 00:13:35;;;;;;;10.15;4.72;;;;;;;;;;5010762;28;20052;-84
2023/01/12 00:18:46;;;;;;;10.48;4.68;;;;;;;;;;5034903;28;20044;-82
2023/01/12 00:21:12;;;;;;;10.70;4.55;;;;;;;;;;5008586;28;20041;-83
2023/01/12 00:23:38;;;;;;;10.98;3.97;;;;;;;;;;5020654;28;20099;-82
2023/01/12 00:26:05;;;;;;;9.93;3.92;;;;;;;;;;5018888;28;20037;-83
2023/01/12 00:28:34;;;;;;;10.93;4.07;;;;;;;;;;5017025;28;20041;-82
2023/01/12 00:31:06;;;;;;;8.93;3.63;;;;;;;;;;5025095;28;20042;-82
2023/01/12 00:33:33;;;;;;;8.30;4.13;;;;;;;;;;5028049;28;20037;-82
2023/01/12 00:36:02;;;;;;;9.33;4.40;;;;;;;;;;5020843;28;20041;-82
2023/01/12 00:38:27;;;;;;;8.43;3.35;;;;;;;;;;5030078;28;20032;-81
2023/01/12 00:40:52;;;;;;;9.18;3.38;;;;;;;;;;5014688;28;20483;-81
2023/01/12 00:46:02;;;;;;;8.95;3.42;;;;;;;;;;5028718;28;21343;-81
2023/01/12 00:48:27;;;;;;;11.20;3.70;;;;;;;;;;5026784;28;20037;-81
2023/01/12 00:50:53;;;;;;;7.40;3.13;;;;;;;;;;5010687;28;20033;-80
2023/01/12 00:53:18;;;;;;;6.32;2.53;;;;;;;;;;5015191;28;20041;-82
2023/01/12 00:55:44;;;;;;;6.80;2.90;;;;;;;;;;5007153;28;20033;-82
2023/01/12 00:58:10;;;;;;;9.00;3.15;;;;;;;;;;5021439;28;20036;-81
2023/01/12 01:00:35;;;;;;;9.57;2.70;;;;;;;;;;5008803;28;20026;-81
2023/01/12 01:03:00;;;;;;;9.50;3.00;;;;;;;;;;5029031;28;20532;-82
2023/01/12 01:05:26;;;;;;;5.70;2.45;;;;;;;;;;5015302;28;20037;-81
2023/01/12 01:07:51;;;;;;;9.18;2.90;;;;;;;;;;5010819;28;20048;-81
2023/01/12 01:10:17;;;;;;;11.48;2.88;;;;;;;;;;5016150;28;20033;-82
2023/01/12 01:12:42;;;;;;;7.63;2.63;;;;;;;;;;5008680;28;20041;-81
2023/01/12 01:15:08;;;;;;;8.48;2.50;;;;;;;;;;5015334;28;24584;-82
2023/01/12 01:17:33;;;;;;;7.15;2.20;;;;;;;;;;5018417;28;20053;-82
2023/01/12 01:20:00;;;;;;;7.72;2.25;;;;;;;;;;5011992;28;20102;-84
2023/01/12 01:22:25;;;;;;;5.75;1.92;;;;;;;;;;5009633;28;20152;-82
2023/01/12 01:24:51;;;;;;;8.15;2.40;;;;;;;;;;5030776;28;20064;-81
2023/01/12 01:27:16;;;;;;;6.47;1.90;;;;;;;;;;5008142;28;20033;-82
2023/01/12 01:29:41;;;;;;;6.45;2.13;;;;;;;;;;5010781;28;20037;-82
2023/01/12 01:32:07;;;;;;;8.68;2.30;;;;;;;;;;5006104;28;20497;-83
2023/01/12 01:34:32;;;;;;;4.32;1.88;;;;;;;;;;5012993;28;20044;-82
2023/01/12 01:36:58;;;;;;;7.28;2.05;;;;;;;;;;5008921;28;20479;-81
2023/01/12 01:39:24;;;;;;;6.63;2.20;;;;;;;;;;5002963;28;20033;-81
2023/01/12 01:41:50;;;;;;;5.88;2.00;;;;;;;;;;5019348;28;20157;-81
2023/01/12 01:44:27;;;;;;;5.30;1.85;;;;;;;;;;5060976;28;20136;-81
2023/01/12 01:46:59;;;;;;;7.22;1.85;;;;;;;;;;5050774;28;20499;-81
2023/01/12 01:49:36;;;;;;;4.80;1.73;;;;;;;;;;5025571;28;20030;-82
2023/01/12 01:52:05;;;;;;;6.18;1.63;;;;;;;;;;5016643;28;20032;-82
2023/01/12 01:54:35;;;;;;;7.40;1.50;;;;;;;;;;5030981;28;20539;-83
2023/01/12 01:57:01;;;;;;;7.63;2.00;;;;;;;;;;5002648;28;20154;-81
2023/01/12 01:59:30;;;;;;;4.85;1.52;;;;;;;;;;5012250;28;20476;-82
2023/01/12 02:01:55;;;;;;;5.88;1.60;;;;;;;;;;5017236;28;20500;-82
2023/01/12 02:04:21;;;;;;;6.00;1.50;;;;;;;;;;5028214;28;20036;-81
2023/01/12 02:06:47;;;;;;;6.38;2.08;;;;;;;;;;5024832;28;20024;-83
2023/01/12 02:09:17;;;;;;;7.68;1.85;;;;;;;;;;5008951;28;20038;-83
2023/01/12 02:17:11;;;;;;;5.90;1.80;;;;;;;;;;5020302;28;20048;-82
2023/01/12 02:19:49;;;;;;;5.78;1.25;;;;;;;;;;5022688;28;20491;-82
2023/01/12 02:22:20;;;;;;;5.05;1.63;;;;;;;;;;5060043;28;20033;-83
2023/01/12 02:24:51;;;;;;;3.92;1.42;;;;;;;;;;5047866;28;20547;-83
2023/01/12 02:27:19;;;;;;;5.72;1.80;;;;;;;;;;5028922;28;20926;-84
2023/01/12 02:30:15;;;;;;;5.25;1.25;;;;;;;;;;5058598;28;20091;-83
2023/01/12 02:33:01;;;;;;;5.65;1.20;;;;;;;;;;5015290;28;20041;-81
2023/01/12 02:35:35;;;;;;;8.05;1.77;;;;;;;;;;5026584;28;20037;-81
2023/01/12 02:38:12;;;;;;;5.25;1.23;;;;;;;;;;5020392;28;20041;-81
2023/01/12 02:40:58;;;;;;;4.30;1.10;;;;;;;;;;5016765;28;20521;-81
2023/01/12 02:43:26;;;;;;;3.38;1.38;;;;;;;;;;5024908;28;20036;-81
2023/01/12 02:46:19;;;;;;;3.83;1.27;;;;;;;;;;5020132;28;20526;-81
2023/01/12 02:49:07;;;;;;;7.68;1.23;;;;;;;;;;5010638;28;20293;-83
2023/01/12 02:51:38;;;;;;;6.78;1.73;;;;;;;;;;5025713;28;20432;-82
2023/01/12 02:54:15;;;;;;;8.52;2.00;;;;;;;;;;5058635;28;20033;-81
2023/01/12 02:56:43;;;;;;;6.60;1.60;;;;;;;;;;5058721;28;20041;-81
2023/01/12 02:59:19;;;;;;;7.47;1.25;;;;;;;;;;5014115;28;20455;-82
2023/01/12 03:01:47;;;;;;;3.95;1.40;;;;;;;;;;5018580;28;20112;-82
2023/01/12 03:04:15;;;;;;;5.35;1.30;;;;;;;;;;5012604;28;20067;-83
2023/01/12 03:06:44;;;;;;;4.82;1.67;;;;;;;;;;5005956;28;20092;-82
2023/01/12 03:09:12;;;;;;;3.95;1.20;;;;;;;;;;5016568;28;20035;-82
2023/01/12 03:11:38;;;;;;;5.70;1.10;;;;;;;;;;5032926;28;20041;-81
2023/01/12 03:14:05;;;;;;;7.15;1.65;;;;;;;;;;5012281;28;20534;-81
2023/01/12 03:16:32;;;;;;;4.07;1.00;;;;;;;;;;5028971;28;20488;-82
2023/01/12 03:19:04;;;;;;;7.18;1.50;;;;;;;;;;5044455;28;20041;-81
2023/01/12 03:21:35;;;;;;;6.32;1.33;;;;;;;;;;5044891;28;20040;-82
2023/01/12 03:24:03;;;;;;;6.03;1.67;;;;;;;;;;5029060;28;20574;-82
2023/01/12 03:26:29;;;;;;;5.47;1.40;;;;;;;;;;5027241;28;20060;-81
2023/01/12 03:29:03;;;;;;;5.30;1.25;;;;;;;;;;5030318;28;20110;-82
2023/01/12 03:31:29;;;;;;;6.53;1.92;;;;;;;;;;5031080;28;20382;-82
2023/01/12 03:33:54;;;;;;;4.28;1.10;;;;;;;;;;5048849;28;20037;-81
2023/01/12 03:36:40;;;;;;;5.10;1.20;;;;;;;;;;5026315;28;20136;-83
2023/01/12 03:39:15;;;;;;;8.30;1.92;;;;;;;;;;5063027;28;20051;-82
2023/01/12 03:42:01;;;;;;;4.05;0.95;;;;;;;;;;5020787;28;20048;-84
2023/01/12 03:45:01;;;;;;;3.07;0.83;;;;;;;;;;5044984;28;20047;-83
2023/01/12 03:47:29;;;;;;;8.23;1.48;;;;;;;;;;5041270;28;20654;-84
2023/01/12 03:49:55;;;;;;;;;;;;;;;;;;5029578;28;20036;-84
2023/01/12 03:52:21;;;;;;;8.50;1.42;;;;;;;;;;5019665;28;20282;-83
2023/01/12 03:54:47;;;;;;;5.82;1.13;;;;;;;;;;5043108;28;20129;-86
2023/01/12 03:57:13;;;;;;;4.68;0.75;;;;;;;;;;5033811;28;20348;-83
2023/01/12 03:59:39;;;;;;;4.78;1.02;;;;;;;;;;5047381;28;20044;-86
2023/01/12 04:02:04;;;;;;;5.03;1.23;;;;;;;;;;5026119;28;20551;-85
2023/01/12 04:04:30;;;;;;;6.00;1.10;;;;;;;;;;5031269;28;20111;-84
2023/01/12 04:06:55;;;;;;;2.78;1.08;;;;;;;;;;5021972;28;21032;-84
2023/01/12 04:09:21;;;;;;;4.45;1.20;;;;;;;;;;5045989;28;20036;-84
2023/01/12 04:14:31;;;;;;;5.57;1.10;;;;;;;;;;5015144;28;20044;-83
2023/01/12 04:16:57;;;;;;;3.88;1.27;;;;;;;;;;4994174;28;20492;-83
2023/01/12 04:19:22;;;;;;;6.28;1.33;;;;;;;;;;5040859;28;20846;-86
2023/01/12 04:24:31;;;;;;;3.85;1.02;;;;;;;;;;5005298;28;20048;-83
2023/01/12 04:26:57;;;;;;;3.20;1.13;;;;;;;;;;5009086;28;20782;-83
2023/01/12 04:29:22;;;;;;;3.13;0.95;;;;;;;;;;4998971;28;20060;-83
2023/01/12 04:31:48;;;;;;;3.65;0.98;;;;;;;;;;5000726;28;20036;-82
2023/01/12 04:34:13;;;;;;;4.80;1.33;;;;;;;;;;4997655;28;20837;-86
2023/01/12 04:36:41;;;;;;;3.70;1.15;;;;;;;;;;5011891;28;20518;-82
2023/01/12 04:39:06;;;;;;;3.30;0.93;;;;;;;;;;5000076;28;20048;-82
2023/01/12 04:41:32;;;;;;;2.92;0.85;;;;;;;;;;5029886;28;20113;-82
2023/01/12 04:43:57;;;;;;;3.80;0.90;;;;;;;;;;4999477;28;20281;-84
2023/01/12 04:46:23;;;;;;;5.13;1.02;;;;;;;;;;5010703;28;20057;-84
2023/01/12 04:48:48;;;;;;;3.15;0.82;;;;;;;;;;5015786;28;20195;-82
2023/01/12 04:51:13;;;;;;;2.95;0.98;;;;;;;;;;5026729;28;20177;-82
2023/01/12 04:53:39;;;;;;;3.20;0.90;;;;;;;;;;4998641;28;21133;-82
2023/01/12 04:56:06;;;;;;;4.93;0.90;;;;;;;;;;4999871;28;20120;-84
2023/01/12 04:58:31;;;;;;;3.45;1.10;;;;;;;;;;5037620;28;20048;-84
2023/01/12 05:00:57;;;;;;;4.20;1.25;;;;;;;;;;4989613;28;20033;-82
2023/01/12 05:03:23;;;;;;;3.13;0.98;;;;;;;;;;4988582;28;20155;-82
2023/01/12 05:05:48;;;;;;;6.60;1.48;;;;;;;;;;4989956;28;20495;-81
2023/01/12 05:10:59;;;;;;;4.63;0.93;;;;;;;;;;5015815;28;20122;-82
2023/01/12 05:13:27;;;;;;;1.95;0.93;;;;;;;;;;5007175;28;20116;-81
2023/01/12 05:15:52;;;;;;;2.40;0.70;;;;;;;;;;5047634;28;20035;-81
2023/01/12 05:18:18;;;;;;;4.20;1.02;;;;;;;;;;5032753;28;20047;-83
2023/01/12 05:20:43;;;;;;;5.10;0.80;;;;;;;;;;5009385;28;20029;-82
2023/01/12 05:23:08;;;;;;;6.47;1.20;;;;;;;;;;5012033;28;20043;-81
2023/01/12 05:25:34;;;;;;;3.28;0.90;;;;;;;;;;5013329;28;20029;-82
2023/01/12 05:27:59;;;;;;;5.70;1.08;;;;;;;;;;5047583;28;20037;-83
2023/01/12 05:30:26;;;;;;;3.85;1.00;;;;;;;;;;5018640;28;20771;-81
2023/01/12 05:32:52;;;;;;;3.42;1.13;;;;;;;;;;5050065;28;20499;-82
2023/01/12 05:35:17;;;;;;;6.15;0.90;;;;;;;;;;5041135;28;20036;-85
2023/01/12 05:37:43;;;;;;;3.47;0.80;;;;;;;;;;5026549;28;20033;-83
2023/01/12 05:40:09;;;;;;;4.15;0.80;;;;;;;;;;5007131;28;20071;-83
2023/01/12 05:45:19;;;;;;;3.85;0.93;;;;;;;;;;5020298;28;20039;-83
2023/01/12 05:47:44;;;;;;;6.38;1.58;;;;;;;;;;5008097;28;20407;-83
2023/01/12 05:50:10;;;;;;;6.05;1.02;;;;;;;;;;5009465;28;20476;-83
2023/01/12 05:52:35;;;;;;;5.32;1.17;;;;;;;;;;5015753;28;20110;-82
2023/01/12 05:55:01;;;;;;;4.05;0.85;;;;;;;;;;5008224;28;20048;-81
2023/01/12 05:57:28;;;;;;;4.50;0.98;;;;;;;;;;5001695;28;20086;-82
2023/01/12 05:59:54;;;;;;;3.42;0.80;;;;;;;;;;5024374;28;20541;-81
2023/01/12 06:02:20;;;;;;;3.65;0.93;;;;;;;;;;5013906;28;20029;-81
2023/01/12 06:04:45;;;;;;;5.75;1.25;;;;;;;;;;5015717;28;20781;-83
2023/01/12 06:07:13;;;;;;;3.45;0.80;;;;;;;;;;5023886;28;20053;-82
2023/01/12 06:09:39;;;;;;;3.20;0.90;;;;;;;;;;5025437;28;20119;-82
2023/01/12 06:14:49;;;;;;;5.45;1.10;;;;;;;;;;5027965;28;20055;-82
2023/01/12 06:17:14;;;;;;;3.25;0.70;;;;;;;;;;5011654;28;20033;-82
2023/01/12 06:19:40;;;;;;;9.38;1.50;;;;;;;;;;5039355;28;20032;-81
2023/01/12 06:22:08;;;;;;;4.15;0.93;;;;;;;;;;5025972;28;20033;-84
2023/01/12 06:24:33;;;;;;;3.38;1.23;;;;;;;;;;5013646;28;20040;-83
2023/01/12 06:26:59;;;;;;;4.50;1.30;;;;;;;;;;5009817;28;20524;-81
2023/01/12 06:29:24;;;;;;;3.10;0.80;;;;;;;;;;5011685;28;20071;-81
2023/01/12 06:31:50;;;;;;;6.03;1.13;;;;;;;;;;5015048;28;20094;-83
2023/01/12 06:34:15;;;;;;;5.88;1.02;;;;;;;;;;5011313;28;20071;-83
2023/01/12 06:36:41;;;;;;;4.85;0.95;;;;;;;;;;5005932;28;20076;-83
2023/01/12 06:39:06;;;;;;;4.80;1.08;;;;;;;;;;5020476;28;20484;-83
2023/01/12 06:44:18;;;;;;;6.13;1.30;;;;;;;;;;5016296;28;20507;-82
2023/01/12 06:46:43;;;;;;;3.90;0.93;;;;;;;;;;5077442;28;20036;-81
2023/01/12 06:49:09;;;;;;;4.28;1.20;;;;;;;;;;5015917;28;21515;-81
2023/01/12 06:51:35;;;;;;;4.13;1.00;;;;;;;;;;5010655;28;20045;-82
2023/01/12 06:54:00;;;;;;;5.35;1.35;;;;;;;;;;5033177;28;20110;-82
2023/01/12 06:56:25;;;;;;;3.78;0.98;;;;;;;;;;5028052;28;20040;-81
2023/01/12 06:58:51;;;;;;;4.45;1.08;;;;;;;;;;5020932;28;20036;-80
2023/01/12 07:01:16;;;;;;;2.85;0.90;;;;;;;;;;5014011;28;20036;-82
2023/01/12 07:03:42;;;;;;;3.05;0.88;;;;;;;;;;5013574;28;20107;-81
2023/01/12 07:06:07;;;;;;;3.90;0.95;;;;;;;;;;5009574;28;20037;-82
2023/01/12 07:08:33;;;;;;;3.85;1.10;;;;;;;;;;5035310;28;20103;-82
2023/01/12 07:11:02;;;;;;;6.03;1.20;;;;;;;;;;5010157;28;20037;-81
2023/01/12 07:13:29;;;;;;;3.97;0.85;;;;;;;;;;5025692;28;20071;-81
2023/01/12 07:16:16;;;;;;;4.82;1.20;;;;;;;;;;5009342;28;20037;-81
2023/01/12 07:18:42;;;;;;;5.32;1.10;;;;;;;;;;4985645;28;20042;-81
2023/01/12 07:21:09;;;;;;;4.28;1.25;;;;;;;;;;4985066;28;20109;-81
2023/01/12 07:23:36;;;;;;;7.22;1.48;;;;;;;;;;4981098;28;20042;-81
2023/01/12 07:26:02;;;;;;;5.00;0.82;;;;;;;;;;4974779;28;20506;-82
2023/01/12 07:28:30;;;;;;;4.20;0.93;;;;;;;;;;4948226;28;20045;-80
2023/01/12 07:30:59;;;;;;;5.57;1.20;;;;;;;;;;4961673;28;20050;-83
2023/01/12 07:33:24;;;;;;;5.00;1.00;;;;;;;;;;4984693;28;20046;-80
2023/01/12 07:35:50;;;;;;;3.20;0.65;;;;;;;;;;5001241;28;20422;-83
2023/01/12 07:38:15;;;;;;;3.72;0.85;;;;;;;;;;4979933;28;20193;-81
2023/01/12 07:40:40;;;;;;;5.57;1.30;;;;;;;;;;4985094;28;20042;-82
2023/01/12 07:43:07;;;;;;;4.00;1.10;;;;;;;;;;5001661;28;20760;-81
2023/01/12 07:45:33;;;;;;;1.92;0.70;;;;;;;;;;4983773;28;20493;-80
2023/01/12 07:47:59;;;;;;;4.05;0.93;;;;;;;;;;4983605;28;20092;-81
2023/01/12 07:50:25;;;;;;;3.47;0.60;;;;;;;;;;4983660;28;20062;-80
2023/01/12 07:52:51;;;;;;;5.70;0.90;;;;;;;;;;4968331;28;20038;-81
2023/01/12 07:55:18;;;;;;;3.83;0.90;;;;;;;;;;4998884;28;20044;-81
2023/01/12 07:57:56;;;;;;;6.22;1.65;;;;;;;;;;5033076;28;20041;-80
2023/01/12 08:00:22;;;;;;;5.05;0.93;;;;;;;;;;5010079;28;20431;-80
2023/01/12 08:02:52;;;;;;;4.30;1.08;;;;;;;;;;5033578;28;20035;-80
2023/01/12 08:05:18;;;;;;;5.57;1.20;;;;;;;;;;5030068;28;20033;-81
2023/01/12 08:07:43;;;;;;;3.38;0.70;;;;;;;;;;5022494;28;20039;-81
2023/01/12 08:10:10;;;;;;;4.60;1.27;;;;;;;;;;5024704;28;21512;-83
2023/01/12 08:12:35;;;;;;;5.50;1.48;;;;;;;;;;5007879;28;20058;-82
2023/01/12 08:15:03;;;;;;;3.75;0.85;;;;;;;;;;5025782;28;20042;-81
2023/01/12 08:17:31;;;;;;;3.25;0.77;;;;;;;;;;5016181;28;20041;-82
2023/01/12 08:20:01;;;;;;;3.88;1.13;;;;;;;;;;5033181;28;20503;-81
2023/01/12 08:22:30;;;;;;;3.60;0.80;;;;;;;;;;5012723;28;20039;-82
2023/01/12 08:25:17;;;;;;;2.35;0.60;;;;;;;;;;5009380;28;20396;-83
2023/01/12 08:27:46;;;;;;;2.42;0.70;;;;;;;;;;5019086;28;20048;-82
2023/01/12 08:30:16;;;;;;;3.13;0.80;;;;;;;;;;5007637;28;20129;-82
2023/01/12 08:32:41;;;;;;;4.55;0.88;;;;;;;;;;5045350;28;20558;-80
2023/01/12 08:35:07;;;;;;;5.90;1.23;;;;;;;;;;5010179;28;20037;-81
2023/01/12 08:37:33;;;;;;;3.85;0.90;;;;;;;;;;5032331;28;20037;-82
2023/01/12 08:39:58;;;;;;;4.00;0.95;;;;;;;;;;5019670;28;20059;-80
2023/01/12 08:42:26;;;;;;;4.60;0.88;;;;;;;;;;5008926;28;20029;-82
2023/01/12 08:44:52;;;;;;;4.38;0.65;;;;;;;;;;5030646;28;20037;-81
2023/01/12 08:47:19;;;;;;;1.38;0.57;;;;;;;;;;5014614;28;20032;-82
2023/01/12 08:49:45;;;;;;;;;;;;;;;;;;5011439;28;20029;-83
2023/01/12 08:52:11;;;;;;;3.25;0.75;;;;;;;;;;5017850;28;19924;-81
2023/01/12 08:54:36;;;;;;;2.58;0.80;;;;;;;;;;5008721;28;20514;-82
2023/01/12 08:57:03;;;;;;;2.55;0.55;;;;;;;;;;5029797;28;20045;-82
2023/01/12 08:59:28;;;;;;;4.47;0.90;;;;;;;;;;5035270;28;20557;-81
2023/01/12 09:01:54;;;;;;;3.97;0.63;;;;;;;;;;5048203;28;20117;-80
2023/01/12 09:04:19;;;;;;;3.03;0.80;;;;;;;;;;5020568;28;20029;-81
2023/01/12 09:06:45;;;;;;;3.33;0.80;;;;;;;;;;5009846;28;20037;-83
2023/01/12 09:09:14;;;;;;;3.50;0.60;;;;;;;;;;5005043;28;20476;-81
2023/01/12 09:11:41;;;;;;;2.30;0.63;;;;;;;;;;5017855;28;20075;-81
2023/01/12 09:14:06;;;;;;;3.63;0.60;;;;;;;;;;5011938;28;20044;-82
2023/01/12 09:16:33;;;;;;;2.38;0.80;;;;;;;;;;5027642;28;20469;-81
2023/01/12 09:18:59;;;;;;;5.65;1.05;;;;;;;;;;5026215;28;20431;-81
2023/01/12 09:21:26;;;;;;;4.53;1.15;;;;;;;;;;5058916;28;20029;-83
2023/01/12 09:23:52;;;;;;;3.40;0.70;;;;;;;;;;5015015;28;20037;-81
2023/01/12 09:26:20;;;;;;;4.00;0.90;;;;;;;;;;5025281;28;20127;-83
2023/01/12 09:28:46;;;;;;;3.85;0.93;;;;;;;;;;5027519;28;20072;-81
2023/01/12 09:31:13;;;;;;;2.58;0.60;;;;;;;;;;5017005;28;20546;-81
2023/01/12 09:33:40;;;;;;;3.80;0.88;;;;;;;;;;5023214;28;20037;-83
2023/01/12 09:36:08;;;;;;;2.70;0.90;;;;;;;;;;5000922;28;20037;-81
2023/01/12 09:38:37;;;;;;;4.63;1.05;;;;;;;;;;5016961;28;20043;-83
2023/01/12 09:47:16;;;;;;;5.57;1.45;;;;;;;;;;5044954;28;20128;-80
2023/01/12 09:49:45;;;;;;;3.17;0.95;;;;;;;;;;5017905;28;20036;-82
2023/01/12 09:52:20;;;;;;;3.40;0.70;;;;;;;;;;5020912;28;20591;-80
2023/01/12 09:54:48;;;;;;;4.90;0.80;;;;;;;;;;5011468;28;20056;-83
2023/01/12 09:57:51;;;;;;;5.10;0.90;;;;;;;;;;5042586;28;20029;-79
2023/01/12 10:00:18;;;;;;;3.58;0.82;;;;;;;;;;5014578;28;20041;-83
2023/01/12 10:02:50;;;;;;;2.15;0.63;;;;;;;;;;5027706;28;20933;-81
2023/01/12 10:05:36;;;;;;;4.35;0.90;;;;;;;;;;5040912;28;20494;-82
2023/01/12 10:08:02;;;;;;;4.97;0.80;;;;;;;;;;4999974;28;20037;-81
2023/01/12 10:10:28;;;;;;;3.38;0.80;;;;;;;;;;5004346;28;20392;-82
2023/01/12 10:12:59;;;;;;;2.90;0.70;;;;;;;;;;5019690;28;20036;-82
2023/01/12 10:15:49;;;;;;;2.88;0.65;;;;;;;;;;5017309;28;20499;-81
2023/01/12 10:18:26;;;;;;;2.53;0.60;;;;;;;;;;4992734;28;20036;-82
2023/01/12 10:20:52;;;;;;;3.17;0.93;;;;;;;;;;5055697;28;20056;-82
2023/01/12 10:23:23;;;;;;;2.70;0.75;;;;;;;;;;5008085;28;20068;-84
2023/01/12 10:26:30;;;;;;;3.03;0.80;;;;;;;;;;5004954;28;20042;-82
2023/01/12 10:28:57;;;;;;;4.40;0.80;;;;;;;;;;5019817;28;20131;-82
2023/01/12 10:31:24;;;;;;;3.25;0.65;;;;;;;;;;5015160;28;20484;-82
2023/01/12 10:34:05;;;;;;;4.23;0.97;;;;;;;;;;5021469;28;20613;-81
2023/01/12 10:36:33;;;;;;;3.70;0.70;;;;;;;;;;5032758;28;20797;-80
2023/01/12 10:39:03;;;;;;;4.38;1.30;;;;;;;;;;5007072;28;20108;-82
2023/01/12 10:41:29;;;;;;;2.50;0.82;;;;;;;;;;5021837;28;20546;-81
2023/01/12 10:43:55;;;;;;;4.72;0.90;;;;;;;;;;5018873;28;20124;-81
2023/01/12 10:46:22;;;;;;;2.67;0.70;;;;;;;;;;5017375;28;20155;-84
2023/01/12 10:48:49;;;;;;;;;;;;;;;;;;5006046;28;20043;-81
2023/01/12 10:51:23;;;;;;;5.72;0.98;;;;;;;;;;5029556;28;19927;-81
2023/01/12 10:54:01;;;;;;;5.85;0.77;;;;;;;;;;5025115;28;20033;-81
2023/01/12 10:56:31;;;;;;;;;;;;;;;;;;5028939;28;20037;-82
2023/01/12 10:59:11;;;;;;;3.25;0.60;;;;;;;;;;5045024;28;19947;-81
2023/01/12 11:01:46;;;;;;;3.95;0.90;;;;;;;;;;5040206;28;20063;-81
2023/01/12 11:04:19;;;;;;;3.90;0.82;;;;;;;;;;5031906;28;20095;-81
2023/01/12 11:06:55;;;;;;;3.97;0.95;;;;;;;;;;5003401;28;20036;-82
2023/01/12 11:09:23;;;;;;;3.75;0.75;;;;;;;;;;5044090;28;20453;-82
2023/01/12 11:12:13;;;;;;;4.50;0.90;;;;;;;;;;5020883;28;20042;-80
2023/01/12 11:14:38;;;;;;;3.30;0.98;;;;;;;;;;4998089;28;20049;-81
2023/01/12 11:17:15;;;;;;;5.72;1.00;;;;;;;;;;4993204;28;20049;-82
2023/01/12 11:19:42;;;;;;;5.57;0.90;;;;;;;;;;4998405;28;20041;-86
2023/01/12 11:22:16;;;;;;;4.85;0.95;;;;;;;;;;4977330;28;20112;-85
2023/01/12 11:24:56;;;;;;;4.43;0.95;;;;;;;;;;4986659;28;20030;-83
2023/01/12 11:27:28;;;;;;;4.47;0.93;;;;;;;;;;5006576;28;20514;-83
2023/01/12 11:29:58;;;;;;;2.78;0.70;;;;;;;;;;5027856;28;20053;-81
2023/01/12 11:32:56;;;;;;;1.70;0.63;;;;;;;;;;5023999;28;20571;-81
2023/01/12 11:35:43;;;;;;;2.35;1.05;;;;;;;;;;5010710;28;20125;-83
2023/01/12 11:38:12;;;;;;;5.38;1.00;;;;;;;;;;5000067;28;20108;-83
2023/01/12 11:40:39;;;;;;;6.25;1.00;;;;;;;;;;5004656;28;20030;-81
2023/01/12 11:43:49;;;;;;;2.33;0.70;;;;;;;;;;5002970;28;20107;-81
2023/01/12 11:46:35;;;;;;;1.58;0.75;;;;;;;;;;4988791;28;20107;-83
2023/01/12 11:49:14;;;;;;;4.10;1.02;;;;;;;;;;4987896;28;20047;-82
2023/01/12 11:51:41;;;;;;;3.33;0.68;;;;;;;;;;4999413;28;20391;-82
2023/01/12 11:54:13;;;;;;;2.67;0.63;;;;;;;;;;4994676;28;20369;-81
2023/01/12 11:56:47;;;;;;;2.08;0.60;;;;;;;;;;5024169;28;20471;-82
2023/01/12 11:59:19;;;;;;;4.13;0.80;;;;;;;;;;5022502;28;20088;-82
2023/01/12 12:01:50;;;;;;;2.53;0.80;;;;;;;;;;5005047;28;20068;-82
2023/01/12 12:04:43;;;;;;;2.67;0.60;;;;;;;;;;4971662;28;20555;-82
2023/01/12 12:07:23;;;;;;;2.55;0.60;;;;;;;;;;5000812;28;20065;-82
2023/01/12 12:09:56;;;;;;;2.97;0.63;;;;;;;;;;5025240;28;20452;-81
2023/01/12 12:13:00;;;;;;;2.08;0.43;;;;;;;;;;5011191;28;20374;-82
2023/01/12 12:16:04;;;;;;;2.70;0.95;;;;;;;;;;5041514;28;20041;-83
2023/01/12 12:18:35;;;;;;;2.15;0.50;;;;;;;;;;5028339;28;20037;-84
2023/01/12 12:21:33;;;;;;;2.13;0.80;;;;;;;;;;5044348;28;20504;-83
2023/01/12 12:24:19;;;;;;;1.95;0.52;;;;;;;;;;5027175;28;20029;-84
2023/01/12 12:26:57;;;;;;;3.87;0.90;;;;;;;;;;5014961;28;20566;-82
2023/01/12 12:29:39;;;;;;;4.03;0.93;;;;;;;;;;5038440;28;20434;-82
2023/01/12 12:32:23;;;;;;;1.63;0.55;;;;;;;;;;5013444;28;20038;-83
2023/01/12 12:35:13;;;;;;;3.33;0.47;;;;;;;;;;5016195;28;20396;-83
2023/01/12 12:38:10;;;;;;;1.25;0.40;;;;;;;;;;5059404;28;20037;-81
2023/01/12 12:46:42;;;;;;;1.67;0.50;;;;;;;;;;5055297;28;20518;-81
2023/01/12 12:49:10;;;;;;;1.48;0.50;;;;;;;;;;5043013;28;20498;-83
2023/01/12 12:51:37;;;;;;;0.60;0.30;;;;;;;;;;5008345;28;20084;-82
2023/01/12 12:54:05;;;;;;;0.93;0.30;;;;;;;;;;5003015;28;20045;-83
2023/01/12 12:56:33;;;;;;;1.15;0.32;;;;;;;;;;5012410;28;20053;-81
2023/01/12 12:59:02;;;;;;;1.60;0.47;;;;;;;;;;5009891;28;20029;-83
2023/01/12 13:01:27;;;;;;;1.65;0.30;;;;;;;;;;5010730;28;20037;-81
2023/01/12 13:03:57;;;;;;;1.33;0.35;;;;;;;;;;5042856;28;20044;-81
2023/01/12 13:06:47;;;;;;;1.65;0.50;;;;;;;;;;5000391;28;20032;-80
2023/01/12 13:09:15;;;;;;;1.52;0.30;;;;;;;;;;5020357;28;20033;-83
2023/01/12 13:11:52;;;;;;;1.58;0.40;;;;;;;;;;5052681;28;20109;-82
2023/01/12 13:14:38;;;;;;;0.47;0.22;;;;;;;;;;5060486;28;20095;-81
2023/01/12 13:17:24;;;;;;;1.17;0.30;;;;;;;;;;5027552;28;20104;-82
2023/01/12 13:19:59;;;;;;;1.33;0.32;;;;;;;;;;5027865;28;20411;-82
2023/01/12 13:22:26;;;;;;;1.55;0.55;;;;;;;;;;5059118;28;20033;-82
2023/01/12 13:24:53;;;;;;;1.55;0.40;;;;;;;;;;5012235;28;20894;-84
2023/01/12 13:28:00;;;;;;;2.25;0.52;;;;;;;;;;5029742;28;20117;-84
2023/01/12 13:30:25;;;;;;;2.50;0.30;;;;;;;;;;4976949;28;20042;-84
2023/01/12 13:32:53;;;;;;;0.60;0.30;;;;;;;;;;5049614;28;20496;-85
2023/01/12 13:35:48;;;;;;;1.75;0.38;;;;;;;;;;5025269;28;20482;-83
2023/01/12 13:38:38;;;;;;;2.67;0.73;;;;;;;;;;5035507;28;20495;-84
2023/01/12 13:41:12;;;;;;;1.73;0.45;;;;;;;;;;5013191;28;20038;-83
2023/01/12 13:43:41;;;;;;;1.13;0.30;;;;;;;;;;5052103;28;20095;-82
2023/01/12 13:46:13;;;;;;;1.80;0.40;;;;;;;;;;5018908;28;20450;-84
2023/01/12 13:48:43;;;;;;;1.40;0.40;;;;;;;;;;5015672;28;20034;-84
2023/01/12 13:51:17;;;;;;;0.80;0.30;;;;;;;;;;4997512;28;20048;-83
2023/01/12 13:53:43;;;;;;;0.60;0.30;;;;;;;;;;5023561;28;20563;-83
2023/01/12 13:56:18;;;;;;;0.75;0.20;;;;;;;;;;5004268;28;20129;-85
2023/01/12 13:58:43;;;;;;;1.33;0.30;;;;;;;;;;5012213;28;20036;-83
2023/01/12 14:01:36;;;;;;;2.30;0.30;;;;;;;;;;5013220;28;20059;-86
2023/01/12 14:04:04;;;;;;;1.35;0.30;;;;;;;;;;5016816;28;20046;-85
2023/01/12 14:06:39;;;;;;;0.95;0.30;;;;;;;;;;5014103;28;20043;-86
2023/01/12 14:09:38;;;;;;;1.33;0.35;;;;;;;;;;5003927;28;20049;-84
2023/01/12 14:12:15;;;;;;;1.63;0.40;;;;;;;;;;5031791;28;20045;-82
2023/01/12 14:18:10;;;;;;;1.23;0.30;;;;;;;;;;5035547;28;20037;-84
2023/01/12 14:20:44;;;;;;;1.10;0.38;;;;;;;;;;5023483;28;20038;-84
2023/01/12 14:23:13;;;;;;;0.85;0.30;;;;;;;;;;5027103;28;20039;-83
2023/01/12 14:25:41;;;;;;;1.42;0.30;;;;;;;;;;5025657;28;20036;-82
2023/01/12 14:28:18;;;;;;;1.60;0.30;;;;;;;;;;5027184;28;20033;-85
2023/01/12 14:30:49;;;;;;;1.17;0.40;;;;;;;;;;5010612;28;20396;-82
2023/01/12 14:33:20;;;;;;;0.43;0.20;;;;;;;;;;5030005;28;20516;-83
2023/01/12 14:35:47;;;;;;;0.47;0.20;;;;;;;;;;5014889;28;20123;-83
2023/01/12 14:38:15;;;;;;;0.35;0.20;;;;;;;;;;5006742;28;20029;-84
2023/01/12 14:40:47;;;;;;;2.08;0.38;;;;;;;;;;5007961;28;20030;-82
2023/01/12 14:49:03;;;;;;;0.68;0.30;;;;;;;;;;5032614;28;20117;-83
2023/01/12 14:51:36;;;;;;;1.15;0.30;;;;;;;;;;5056338;28;20041;-84
2023/01/12 14:54:04;;;;;;;0.93;0.25;;;;;;;;;;5002630;28;20125;-83
2023/01/12 14:56:47;;;;;;;0.77;0.20;;;;;;;;;;5013073;28;20041;-84
2023/01/12 14:59:16;;;;;;;0.65;0.30;;;;;;;;;;5023944;28;20549;-85
2023/01/12 15:01:41;;;;;;;1.33;0.30;;;;;;;;;;5010940;28;20227;-83
2023/01/12 15:04:16;;;;;;;0.75;0.20;;;;;;;;;;5035319;28;20611;-83
2023/01/12 15:06:42;;;;;;;0.88;0.30;;;;;;;;;;5009385;28;20063;-83
2023/01/12 15:09:23;;;;;;;0.88;0.40;;;;;;;;;;5060214;28;20072;-83
2023/01/12 15:11:49;;;;;;;1.13;0.30;;;;;;;;;;4990266;28;20460;-81
2023/01/12 15:14:26;;;;;;;1.95;0.57;;;;;;;;;;4992574;28;20120;-83
2023/01/12 15:27:59;;;;;;;0.55;0.25;;;;;;;;;;5028944;28;20061;-81
2023/01/12 15:30:25;;;;;;;0.82;0.30;;;;;;;;;;5013571;28;20033;-83
2023/01/12 15:32:51;;;;;;;0.65;0.30;;;;;;;;;;4991917;28;20111;-82
2023/01/12 15:35:22;;;;;;;1.15;0.30;;;;;;;;;;5007111;28;20037;-83
2023/01/12 15:37:56;;;;;;;0.65;0.30;;;;;;;;;;4995701;28;20033;-82
2023/01/12 15:40:23;;;;;;;0.70;0.30;;;;;;;;;;5027601;28;20042;-84
2023/01/12 15:42:51;;;;;;;1.67;0.30;;;;;;;;;;5015890;28;20775;-82
2023/01/12 15:45:21;;;;;;;0.82;0.30;;;;;;;;;;5028021;28;20040;-80
2023/01/12 15:47:47;;;;;;;1.42;0.30;;;;;;;;;;5001580;28;20067;-82
2023/01/12 15:50:15;;;;;;;1.40;0.40;;;;;;;;;;4992142;28;20057;-83
2023/01/12 15:52:41;;;;;;;1.55;0.28;;;;;;;;;;5011207;28;20634;-81
2023/01/12 15:55:13;;;;;;;0.80;0.30;;;;;;;;;;4993136;28;20042;-83
2023/01/12 15:57:46;;;;;;;1.10;0.28;;;;;;;;;;4979440;28;20396;-84
2023/01/12 16:00:23;;;;;;;0.98;0.30;;;;;;;;;;5025576;28;20385;-84
2023/01/12 16:02:50;;;;;;;1.52;0.40;;;;;;;;;;5016277;28;20036;-83